Time;durP1;ratioP1;P1;durP2;ratioP2;P2;SDS_P1;SDS_P2;PMS_P1;PMS_P2;Temp;Humidity;BMP_temperature;BMP_pressure;BME280_temperature;BME280_humidity;BME280_pressure;Samples;Min_cycle;Max_cycle;Signal;HPM_P1;HPM_P2
2023/05/01 00:00:03;;;;;;;3.97;2.97;;;;;;;10.38;79.95;98568.94;4917899;29;20447;-64
2023/05/01 00:02:31;;;;;;;5.10;3.40;;;;;;;10.42;78.73;98564.25;4919996;28;20705;-64
2023/05/01 00:04:57;;;;;;;4.40;3.40;;;;;;;10.45;80.17;98563.94;4922582;29;20236;-64
2023/05/01 00:07:32;;;;;;;5.50;3.60;;;;;;;10.54;79.17;98559.63;4919666;29;20652;-65
2023/05/01 00:09:58;;;;;;;6.23;3.77;;;;;;;10.56;78.29;98561.09;4923003;29;20591;-65
2023/05/01 00:12:31;;;;;;;3.73;3.10;;;;;;;10.57;79.75;98552.31;4919922;29;20247;-64
2023/05/01 00:14:57;;;;;;;5.43;3.70;;;;;;;10.53;78.66;98555.38;4922533;29;20313;-64
2023/05/01 00:17:29;;;;;;;4.10;3.60;;;;;;;10.56;77.37;98548.06;4919665;28;20241;-64
2023/05/01 00:19:56;;;;;;;4.10;3.50;;;;;;;10.59;79.68;98546.94;4922920;29;20329;-64
2023/05/01 00:22:29;;;;;;;6.30;3.70;;;;;;;10.56;83.99;98544.63;4885080;29;20249;-64
2023/05/01 00:24:55;;;;;;;8.07;4.37;;;;;;;10.44;83.58;98544.88;4893117;29;20233;-64
2023/05/01 00:27:48;;;;;;;4.60;3.40;;;;;;;10.40;82.29;98543.53;4919555;28;22271;-64
2023/05/01 00:30:15;;;;;;;4.90;3.37;;;;;;;10.38;82.87;98536.78;4896734;29;20663;-64
2023/05/01 00:32:42;;;;;;;6.37;3.67;;;;;;;10.33;83.33;98535.47;4902148;29;20722;-64
2023/05/01 00:35:09;;;;;;;7.53;3.37;;;;;;;10.42;79.65;98532.94;4899236;29;20238;-64
2023/05/01 00:37:36;;;;;;;4.67;3.50;;;;;;;10.54;79.60;98533.53;4916499;29;20257;-64
2023/05/01 00:40:02;;;;;;;4.23;3.33;;;;;;;10.57;82.39;98534.03;4899447;29;20239;-64
2023/05/01 00:42:34;;;;;;;5.47;3.40;;;;;;;10.56;81.86;98532.41;4896553;29;20716;-64
2023/05/01 00:45:02;;;;;;;3.87;3.43;;;;;;;10.49;82.00;98539.19;4892461;29;20248;-64
2023/05/01 00:47:29;;;;;;;4.23;3.47;;;;;;;10.41;83.91;98526.09;4909127;29;20236;-64
2023/05/01 00:49:56;;;;;;;4.37;3.37;;;;;;;10.36;82.68;98523.06;4909044;29;20227;-64
2023/05/01 00:52:29;;;;;;;5.57;3.57;;;;;;;10.28;83.37;98522.03;4917479;28;20250;-64
2023/05/01 00:54:57;;;;;;;7.57;3.40;;;;;;;10.24;83.12;98522.50;4921865;28;20243;-64
2023/05/01 00:57:29;;;;;;;11.30;3.60;;;;;;;10.20;83.12;98516.75;4906272;28;20713;-65
2023/05/01 00:59:55;;;;;;;6.07;3.40;;;;;;;10.23;83.79;98516.47;4920032;29;20565;-64
2023/05/01 01:02:49;;;;;;;4.70;4.20;;;;;;;10.22;82.61;98516.63;4914351;29;20235;-64
2023/05/01 01:05:15;;;;;;;4.47;3.50;;;;;;;10.18;83.27;98503.88;4900112;29;20228;-64
2023/05/01 01:07:53;;;;;;;3.70;2.80;;;;;;;10.18;82.84;98506.50;4902548;29;20314;-65
2023/05/01 01:10:28;;;;;;;4.03;3.30;;;;;;;10.13;83.32;98500.91;4900334;29;20232;-65
2023/05/01 01:13:04;;;;;;;4.60;3.43;;;;;;;10.12;84.25;98496.66;4894501;28;20317;-64
2023/05/01 01:15:35;;;;;;;5.77;4.23;;;;;;;10.18;86.77;98493.44;4892095;29;21839;-64
2023/05/01 01:18:09;;;;;;;5.57;3.80;;;;;;;10.10;87.13;98489.94;4913640;28;20248;-64
2023/05/01 01:20:46;;;;;;;5.10;3.60;;;;;;;10.07;86.40;98485.88;4919669;29;20318;-64
2023/05/01 01:23:53;;;;;;;5.40;3.97;;;;;;;10.09;86.71;98481.31;4890100;29;20236;-64
2023/05/01 01:26:33;;;;;;;6.03;3.77;;;;;;;10.04;85.78;98479.19;4901996;29;20234;-64
2023/05/01 01:29:30;;;;;;;4.47;3.67;;;;;;;10.12;89.77;98473.19;4895801;29;20839;-64
2023/05/01 01:32:04;;;;;;;8.27;3.80;;;;;;;10.03;89.58;98480.16;4910991;29;20270;-64
2023/05/01 01:34:36;;;;;;;5.17;3.77;;;;;;;10.06;89.93;98478.22;4898567;29;20591;-64
2023/05/01 01:37:08;;;;;;;10.17;5.17;;;;;;;10.00;89.26;98474.41;4901990;29;20709;-64
2023/05/01 01:39:43;;;;;;;4.90;3.73;;;;;;;9.97;90.10;98477.31;4894673;29;20233;-64
2023/05/01 01:42:15;;;;;;;4.37;3.77;;;;;;;9.93;89.03;98478.56;4840574;29;20276;-64
2023/05/01 01:44:49;;;;;;;6.87;3.73;;;;;;;9.94;91.79;98478.44;4914917;29;20722;-64
2023/05/01 01:47:17;;;;;;;6.60;3.40;;;;;;;9.89;90.31;98478.06;4881283;29;20267;-64
2023/05/01 01:49:51;;;;;;;5.53;3.80;;;;;;;9.85;88.96;98467.09;4913266;29;20272;-65
2023/05/01 01:52:20;;;;;;;7.07;4.60;;;;;;;9.85;88.56;98472.31;4916437;29;20229;-64
2023/05/01 01:54:51;;;;;;;4.57;4.10;;;;;;;9.81;88.44;98470.97;4906272;29;20236;-64
2023/05/01 01:57:21;;;;;;;5.20;3.97;;;;;;;9.82;89.08;98462.19;4891825;29;20311;-64
2023/05/01 01:59:50;;;;;;;5.37;3.70;;;;;;;9.82;88.80;98470.00;4904051;29;20214;-64
2023/05/01 02:02:20;;;;;;;4.90;3.80;;;;;;;9.82;88.49;98470.00;4899487;29;20231;-64
2023/05/01 02:04:49;;;;;;;5.87;3.80;;;;;;;9.83;87.72;98458.63;4900393;29;20286;-64
2023/05/01 02:07:19;;;;;;;5.03;3.50;;;;;;;9.85;90.08;98459.28;4919125;28;21225;-64
2023/05/01 02:09:51;;;;;;;5.47;3.97;;;;;;;9.85;89.59;98455.88;4855051;29;20236;-64
2023/05/01 02:12:19;;;;;;;5.80;3.90;;;;;;;9.87;90.00;98451.31;4867191;29;20627;-64
2023/05/01 02:14:49;;;;;;;4.77;3.60;;;;;;;9.83;89.58;98456.00;4871096;29;20239;-64
2023/05/01 02:17:16;;;;;;;6.30;4.33;;;;;;;9.85;88.01;98448.06;4904193;28;20764;-64
2023/05/01 02:19:45;;;;;;;5.43;3.83;;;;;;;9.88;87.99;98460.78;4901207;29;20250;-64
2023/05/01 02:22:17;;;;;;;7.67;4.13;;;;;;;9.87;86.43;98452.13;4897169;29;20242;-64
2023/05/01 02:24:48;;;;;;;5.63;4.07;;;;;;;9.91;86.48;98452.66;4902113;29;20268;-64
2023/05/01 02:27:19;;;;;;;4.13;3.60;;;;;;;9.90;86.29;98456.25;4898188;29;20236;-64
2023/05/01 02:29:46;;;;;;;4.00;3.60;;;;;;;9.92;85.49;98449.09;4900536;29;20233;-64
2023/05/01 02:32:13;;;;;;;4.43;3.50;;;;;;;9.94;86.38;98454.13;4897880;28;20260;-64
2023/05/01 02:34:40;;;;;;;4.43;3.53;;;;;;;9.96;87.16;98449.59;4913635;29;20665;-64
2023/05/01 02:37:11;;;;;;;5.43;4.07;;;;;;;9.96;87.17;98449.59;4909948;28;20246;-64
2023/05/01 02:39:40;;;;;;;5.27;4.00;;;;;;;9.96;85.85;98447.00;4910660;28;20233;-64
2023/05/01 02:42:10;;;;;;;4.47;3.50;;;;;;;10.00;85.06;98446.53;4919736;29;20291;-64
2023/05/01 02:44:40;;;;;;;5.13;3.37;;;;;;;10.06;84.42;98441.69;4917486;29;20258;-64
2023/05/01 02:47:10;;;;;;;4.70;4.07;;;;;;;10.05;86.68;98440.88;4849328;29;20762;-64
2023/05/01 02:49:39;;;;;;;4.67;3.80;;;;;;;10.06;86.91;98436.47;4854962;29;20246;-64
2023/05/01 02:52:12;;;;;;;6.43;4.17;;;;;;;10.03;87.88;98437.59;4916445;29;20349;-64
2023/05/01 02:54:40;;;;;;;4.00;3.60;;;;;;;10.07;87.57;98432.91;4920332;29;20710;-64
2023/05/01 02:57:07;;;;;;;4.17;3.73;;;;;;;10.07;88.50;98438.94;4907174;29;20277;-64
2023/05/01 02:59:34;;;;;;;6.87;3.90;;;;;;;10.04;87.86;98429.63;4903054;29;20233;-64
2023/05/01 03:04:42;;;;;;;6.13;3.93;;;;;;;10.04;89.50;98431.41;5154711;23;20242;-65
2023/05/01 03:07:09;;;;;;;4.33;3.93;;;;;;;10.01;90.74;98423.88;4899632;29;20534;-65
2023/05/01 03:09:35;;;;;;;6.53;4.00;;;;;;;9.95;90.54;98419.28;4904898;29;20292;-65
2023/05/01 03:12:05;;;;;;;6.83;4.40;;;;;;;9.91;90.50;98421.38;4889390;29;20237;-65
2023/05/01 03:14:32;;;;;;;4.77;4.10;;;;;;;9.92;89.71;98423.03;4870162;29;20294;-65
2023/05/01 03:16:58;;;;;;;7.70;4.17;;;;;;;9.89;90.81;98418.09;4905183;29;20230;-63
2023/05/01 03:19:25;;;;;;;9.43;4.40;;;;;;;9.85;92.82;98412.34;4885190;29;20239;-63
2023/05/01 03:21:51;;;;;;;5.57;4.13;;;;;;;9.83;90.73;98403.88;4903710;29;20255;-63
2023/05/01 03:24:18;;;;;;;6.70;4.00;;;;;;;9.84;90.77;98408.13;4890063;29;20235;-63
2023/05/01 03:26:45;;;;;;;4.83;3.70;;;;;;;9.79;90.56;98409.56;4869965;29;20804;-63
2023/05/01 03:29:13;;;;;;;5.33;4.37;;;;;;;9.79;91.33;98409.56;4874710;29;20706;-63
2023/05/01 03:31:40;;;;;;;5.20;3.97;;;;;;;9.72;91.41;98406.72;5106127;23;20697;-62
2023/05/01 03:34:08;;;;;;;7.50;4.53;;;;;;;9.68;91.04;98410.59;4897045;28;20247;-62
2023/05/01 03:36:36;;;;;;;6.73;4.07;;;;;;;9.72;91.36;98411.94;4893337;29;22140;-62
2023/05/01 03:39:07;;;;;;;6.10;4.30;;;;;;;9.70;91.00;98408.66;4895070;29;20317;-62
2023/05/01 03:41:52;;;;;;;4.83;4.17;;;;;;;9.65;90.91;98405.69;4922433;29;20359;-62
2023/05/01 03:44:24;;;;;;;5.07;3.87;;;;;;;9.57;91.08;98404.63;4902671;29;20221;-62
2023/05/01 03:46:51;;;;;;;6.27;4.03;;;;;;;9.54;90.49;98409.34;4918452;29;20253;-62
2023/05/01 03:49:23;;;;;;;5.70;3.80;;;;;;;9.54;90.09;98411.94;4893163;29;20713;-62
2023/05/01 03:51:50;;;;;;;6.57;4.03;;;;;;;9.55;91.58;98413.59;4902916;29;20625;-62
2023/05/01 03:54:18;;;;;;;5.87;4.27;;;;;;;9.55;93.30;98406.56;4900470;29;20587;-64
2023/05/01 03:56:59;;;;;;;4.83;4.30;;;;;;;9.58;93.70;98411.47;4901982;29;20234;-64
2023/05/01 03:59:27;;;;;;;5.53;4.40;;;;;;;9.56;94.01;98407.41;4891956;29;20237;-64
2023/05/01 04:01:54;;;;;;;5.63;4.30;;;;;;;9.54;94.69;98410.16;4902278;29;20715;-64
2023/05/01 04:04:21;;;;;;;6.07;4.50;;;;;;;9.54;94.00;98410.16;4898427;29;20242;-65
2023/05/01 04:06:54;;;;;;;7.40;4.67;;;;;;;9.54;94.59;98410.16;4894854;29;20309;-65
2023/05/01 04:09:21;;;;;;;6.63;4.37;;;;;;;9.52;94.80;98408.66;4916130;29;20270;-65
2023/05/01 04:11:47;;;;;;;6.03;4.20;;;;;;;9.52;95.66;98412.13;4903035;29;20234;-65
2023/05/01 04:14:14;;;;;;;6.30;4.43;;;;;;;9.54;95.01;98407.53;4890584;29;20230;-65
2023/05/01 04:16:42;;;;;;;5.57;4.30;;;;;;;9.53;95.00;98416.34;4900886;29;20245;-65
2023/05/01 04:19:09;;;;;;;7.80;4.70;;;;;;;9.54;95.81;98415.34;4901509;29;20286;-65
2023/05/01 04:21:41;;;;;;;5.50;4.33;;;;;;;9.57;96.39;98414.25;4900371;29;20625;-65
2023/05/01 04:24:07;;;;;;;4.83;4.13;;;;;;;9.57;96.27;98415.06;4903038;29;20845;-65
2023/05/01 04:26:34;;;;;;;5.40;4.53;;;;;;;9.62;95.64;98419.00;4904310;29;20692;-65
2023/05/01 04:29:01;;;;;;;6.17;4.60;;;;;;;9.66;96.36;98415.13;4894186;29;20249;-65
2023/05/01 04:31:28;;;;;;;6.43;4.57;;;;;;;9.70;95.93;98417.31;4899777;29;21240;-65
2023/05/01 04:33:56;;;;;;;5.50;4.10;;;;;;;9.75;96.13;98417.66;4906633;29;20230;-65
2023/05/01 04:36:22;;;;;;;5.73;4.23;;;;;;;9.84;95.96;98420.34;4916698;29;20236;-65
2023/05/01 04:38:49;;;;;;;5.13;4.27;;;;;;;9.94;96.81;98422.84;4901507;29;20233;-65
2023/05/01 04:41:17;;;;;;;6.20;4.10;;;;;;;10.02;96.53;98422.91;4899369;29;20230;-65
2023/05/01 04:43:45;;;;;;;5.13;4.30;;;;;;;10.11;95.83;98424.59;4906169;29;20236;-65
2023/05/01 04:46:13;;;;;;;5.93;4.13;;;;;;;10.20;95.71;98428.06;4917561;29;20233;-65
2023/05/01 04:48:40;;;;;;;7.53;4.27;;;;;;;10.28;95.72;98430.75;4903564;29;20766;-65
2023/05/01 04:51:08;;;;;;;5.63;4.57;;;;;;;10.41;96.42;98426.94;4905300;29;20325;-65
2023/05/01 04:53:35;;;;;;;6.50;4.50;;;;;;;10.48;95.80;98427.94;4890981;29;20246;-65
2023/05/01 04:56:03;;;;;;;5.53;4.50;;;;;;;10.57;95.54;98424.41;4878528;29;20686;-65
2023/05/01 04:58:31;;;;;;;8.10;4.80;;;;;;;10.66;94.50;98440.91;4890380;29;20277;-65
2023/05/01 05:01:03;;;;;;;6.13;5.00;;;;;;;10.75;94.09;98436.56;4889313;29;20258;-65
2023/05/01 05:03:31;;;;;;;5.70;4.73;;;;;;;10.82;94.81;98437.59;4896483;29;20301;-65
2023/05/01 05:05:58;;;;;;;5.10;4.60;;;;;;;10.88;94.14;98443.94;4916800;29;20238;-65
2023/05/01 05:08:26;;;;;;;8.17;6.07;;;;;;;10.90;93.08;98442.00;4897455;29;20331;-65
2023/05/01 05:11:01;;;;;;;9.07;5.77;;;;;;;10.95;93.60;98442.34;4898620;29;20242;-65
2023/05/01 05:14:06;;;;;;;8.40;6.33;;;;;;;10.93;91.33;98447.75;4909111;29;20775;-65
2023/05/01 05:16:33;;;;;;;6.70;6.00;;;;;;;10.91;90.66;98446.25;4919468;28;20236;-65
2023/05/01 05:19:00;;;;;;;6.87;6.00;;;;;;;10.87;91.71;98447.53;4900886;29;20337;-65
2023/05/01 05:21:28;;;;;;;10.27;6.53;;;;;;;10.82;92.92;98444.59;4914794;29;20274;-65
2023/05/01 05:23:58;;;;;;;10.03;6.83;;;;;;;10.84;92.71;98445.25;4896163;29;20241;-65
2023/05/01 05:26:27;;;;;;;7.90;6.60;;;;;;;10.89;92.62;98453.41;4899253;29;20248;-65
2023/05/01 05:28:57;;;;;;;12.33;6.87;;;;;;;10.91;91.15;98454.09;4907166;29;20241;-65
2023/05/01 05:31:23;;;;;;;7.33;6.07;;;;;;;10.98;92.20;98452.47;4898518;29;20319;-65
2023/05/01 05:33:50;;;;;;;8.50;6.57;;;;;;;11.06;92.96;98456.94;4890590;29;20240;-65
2023/05/01 05:36:17;;;;;;;8.63;7.10;;;;;;;11.16;92.31;98454.19;4897072;29;20241;-62
2023/05/01 05:38:44;;;;;;;8.17;6.60;;;;;;;11.22;90.87;98453.53;4901101;29;20242;-62
2023/05/01 05:41:16;;;;;;;7.63;6.03;;;;;;;11.33;91.73;98450.63;4908725;29;20969;-62
2023/05/01 05:43:43;;;;;;;8.80;6.00;;;;;;;11.46;92.59;98463.22;4920631;29;20715;-63
2023/05/01 05:46:10;;;;;;;9.93;7.37;;;;;;;11.55;92.36;98461.47;4899139;29;20239;-62
2023/05/01 05:48:37;;;;;;;16.97;10.70;;;;;;;11.57;90.77;98462.13;4899324;28;20238;-62
2023/05/01 05:51:04;;;;;;;18.03;11.97;;;;;;;11.58;89.28;98466.38;4914941;29;20231;-62
2023/05/01 05:53:31;;;;;;;13.10;9.13;;;;;;;11.61;89.01;98465.22;4897383;29;20307;-62
2023/05/01 05:55:58;;;;;;;12.23;9.43;;;;;;;11.64;89.57;98467.50;4892655;29;20235;-62
2023/05/01 05:58:27;;;;;;;10.00;7.43;;;;;;;11.51;86.70;98454.91;4887099;29;20315;-62
2023/05/01 06:00:54;;;;;;;10.80;8.00;;;;;;;11.40;88.29;98469.09;4910247;29;20237;-61
2023/05/01 06:03:21;;;;;;;10.30;8.07;;;;;;;11.42;87.59;98464.53;4896407;29;20278;-62
2023/05/01 06:05:50;;;;;;;11.20;8.83;;;;;;;11.43;88.26;98466.16;4898356;29;20302;-61
2023/05/01 06:08:17;;;;;;;14.13;8.83;;;;;;;11.36;87.98;98468.59;4890595;29;20608;-61
2023/05/01 06:10:44;;;;;;;10.27;8.53;;;;;;;11.47;87.83;98470.09;4913746;29;20347;-61
2023/05/01 06:13:12;;;;;;;12.37;9.03;;;;;;;11.25;88.92;98463.69;4917600;29;20239;-61
2023/05/01 06:15:42;;;;;;;12.83;9.50;;;;;;;11.54;88.53;98465.06;4909410;29;20239;-61
2023/05/01 06:18:09;;;;;;;13.27;9.50;;;;;;;11.32;89.32;98469.91;4906133;29;20302;-64
2023/05/01 06:20:36;;;;;;;10.47;8.50;;;;;;;11.45;90.57;98468.63;4896483;29;20235;-64
2023/05/01 06:23:02;;;;;;;11.87;8.03;;;;;;;11.56;89.89;98468.31;4915597;29;20234;-64
2023/05/01 06:25:39;;;;;;;10.47;7.97;;;;;;;11.80;87.83;98471.91;4902418;29;20652;-64
2023/05/01 06:28:06;;;;;;;10.03;8.37;;;;;;;11.93;86.44;98472.25;4918933;29;20222;-64
2023/05/01 06:30:34;;;;;;;9.70;8.10;;;;;;;11.99;85.06;98473.41;4881876;29;20243;-64
2023/05/01 06:33:03;;;;;;;11.63;8.43;;;;;;;12.04;85.24;98471.16;4858475;29;1053233;-64
2023/05/01 06:35:30;;;;;;;13.50;8.90;;;;;;;12.13;84.95;98469.34;4901057;29;20239;-64
2023/05/01 06:37:56;;;;;;;11.63;9.10;;;;;;;12.06;83.55;98471.81;4900556;29;20224;-64
2023/05/01 06:40:23;;;;;;;11.57;9.13;;;;;;;12.17;84.75;98472.47;4895317;29;20234;-64
2023/05/01 06:42:49;;;;;;;10.80;8.30;;;;;;;12.19;84.95;98480.97;4900079;29;20271;-64
2023/05/01 06:45:16;;;;;;;11.90;9.00;;;;;;;12.20;84.43;98480.78;4915569;29;20221;-64
2023/05/01 06:47:43;;;;;;;12.43;8.97;;;;;;;12.19;84.14;98484.38;4892936;29;20306;-64
2023/05/01 06:50:11;;;;;;;10.87;8.27;;;;;;;12.41;84.21;98489.94;4900775;29;20227;-64
2023/05/01 06:52:38;;;;;;;11.07;7.97;;;;;;;12.68;83.26;98493.16;4900631;29;20240;-62
2023/05/01 06:55:07;;;;;;;11.73;8.80;;;;;;;12.32;84.05;98488.31;4899590;29;20226;-64
2023/05/01 06:57:34;;;;;;;13.47;10.13;;;;;;;12.22;84.64;98491.06;4897554;29;20228;-64
2023/05/01 07:00:01;;;;;;;9.93;8.53;;;;;;;12.39;85.07;98497.13;4908190;29;20256;-64
2023/05/01 07:02:29;;;;;;;11.10;8.30;;;;;;;12.46;83.91;98503.34;4907354;29;20254;-64
2023/05/01 07:04:55;;;;;;;14.70;8.73;;;;;;;12.78;82.77;98498.19;4909609;29;20714;-64
2023/05/01 07:07:27;;;;;;;12.73;8.07;;;;;;;13.06;79.82;98514.31;4906376;29;20224;-63
2023/05/01 07:09:53;;;;;;;12.57;8.30;;;;;;;13.05;79.50;98509.25;4910087;29;20229;-63
2023/05/01 07:12:20;;;;;;;10.53;8.30;;;;;;;13.24;79.17;98508.84;4906901;29;20237;-63
2023/05/01 07:14:47;;;;;;;10.93;8.40;;;;;;;13.29;78.16;98505.69;4910239;29;20723;-63
2023/05/01 07:17:13;;;;;;;10.20;8.20;;;;;;;13.31;78.45;98511.59;4906932;29;20775;-63
2023/05/01 07:19:40;;;;;;;12.67;8.80;;;;;;;13.72;79.27;98511.41;4911015;29;20621;-63
2023/05/01 07:22:07;;;;;;;9.23;7.87;;;;;;;14.17;78.67;98514.19;4897469;29;20707;-63
2023/05/01 07:24:35;;;;;;;10.53;8.50;;;;;;;14.58;73.62;98518.25;4926280;29;20561;-62
2023/05/01 07:27:01;;;;;;;11.07;8.90;;;;;;;14.47;74.16;98516.03;4928713;29;20235;-64
2023/05/01 07:29:28;;;;;;;14.60;9.70;;;;;;;14.39;75.12;98511.66;4925873;29;20283;-63
2023/05/01 07:31:55;;;;;;;13.80;9.30;;;;;;;14.53;75.04;98515.34;4928176;29;20228;-63
2023/05/01 07:34:22;;;;;;;11.03;9.90;;;;;;;13.95;77.19;98515.81;4925386;29;20584;-63
2023/05/01 07:36:48;;;;;;;12.70;9.73;;;;;;;13.36;79.08;98509.25;4927520;29;20252;-64
2023/05/01 07:39:17;;;;;;;13.23;9.17;;;;;;;13.35;80.92;98514.66;4925706;29;20735;-63
2023/05/01 07:41:45;;;;;;;13.57;10.23;;;;;;;12.53;83.61;98514.78;4928809;29;20235;-63
2023/05/01 07:44:12;;;;;;;12.80;10.00;;;;;;;12.46;84.90;98513.81;4925067;29;20322;-62
2023/05/01 07:46:38;;;;;;;13.93;11.23;;;;;;;12.52;85.69;98515.78;4928808;29;20570;-63
2023/05/01 07:49:05;;;;;;;12.60;10.03;;;;;;;12.70;85.46;98518.19;4929056;29;20224;-63
2023/05/01 07:51:32;;;;;;;15.93;10.87;;;;;;;12.93;85.32;98519.25;4924627;29;20243;-64
2023/05/01 07:54:02;;;;;;;13.83;10.80;;;;;;;13.06;85.45;98522.16;4927132;29;20319;-63
2023/05/01 07:56:29;;;;;;;15.80;11.93;;;;;;;13.04;83.74;98520.72;4924231;29;20331;-63
2023/05/01 07:58:57;;;;;;;14.37;10.83;;;;;;;12.51;85.90;98510.69;4927281;29;20282;-64
2023/05/01 08:01:24;;;;;;;13.97;10.97;;;;;;;12.29;89.16;98507.75;4923416;29;20750;-63
2023/05/01 08:03:50;;;;;;;13.93;10.83;;;;;;;12.23;88.47;98505.78;4910570;29;20302;-64
2023/05/01 08:06:17;;;;;;;15.90;12.13;;;;;;;12.23;89.11;98505.78;4924504;29;20221;-63
2023/05/01 08:08:44;;;;;;;13.93;11.23;;;;;;;12.35;89.62;98514.94;4911695;29;20238;-65
2023/05/01 08:11:11;;;;;;;16.10;11.43;;;;;;;12.59;87.25;98509.88;4924281;29;20636;-64
2023/05/01 08:13:38;;;;;;;15.50;11.20;;;;;;;12.65;86.87;98517.06;4927378;29;20305;-63
2023/05/01 08:16:06;;;;;;;14.93;11.60;;;;;;;12.40;88.91;98510.03;4927574;29;20588;-63
2023/05/01 08:18:33;;;;;;;13.97;11.37;;;;;;;12.69;86.90;98513.13;4925699;29;20326;-62
2023/05/01 08:20:59;;;;;;;15.37;11.73;;;;;;;12.77;87.13;98517.50;4927534;29;20227;-62
2023/05/01 08:23:26;;;;;;;16.97;11.37;;;;;;;12.87;87.66;98517.31;4919102;29;20226;-62
2023/05/01 08:25:53;;;;;;;13.33;10.57;;;;;;;12.97;87.93;98508.28;4928235;29;20726;-62
2023/05/01 08:28:20;;;;;;;17.37;11.07;;;;;;;13.11;86.70;98516.44;4925634;29;20240;-62
2023/05/01 08:30:48;;;;;;;13.37;11.00;;;;;;;13.18;88.24;98506.91;4927782;29;20255;-62
2023/05/01 08:33:16;;;;;;;13.63;10.63;;;;;;;13.35;88.07;98504.19;4924363;29;20700;-62
2023/05/01 08:35:45;;;;;;;13.53;9.43;;;;;;;13.50;86.58;98514.81;4927974;29;20240;-62
2023/05/01 08:38:12;;;;;;;13.90;10.60;;;;;;;13.50;84.68;98512.97;4924652;29;20225;-62
2023/05/01 08:40:40;;;;;;;14.17;10.43;;;;;;;13.46;85.47;98511.69;4928335;29;20695;-62
2023/05/01 08:43:08;;;;;;;13.97;10.47;;;;;;;13.57;85.17;98511.31;4927045;29;20632;-62
2023/05/01 08:45:37;;;;;;;15.73;11.17;;;;;;;13.53;85.86;98504.78;4925561;29;20240;-62
2023/05/01 08:48:05;;;;;;;12.77;10.90;;;;;;;13.57;87.33;98505.25;4928105;29;20225;-62
2023/05/01 08:50:36;;;;;;;12.43;10.30;;;;;;;13.84;87.35;98506.56;4916144;29;20330;-62
2023/05/01 08:53:03;;;;;;;14.07;10.03;;;;;;;14.01;86.33;98495.94;4927686;29;20324;-62
2023/05/01 08:55:31;;;;;;;11.87;10.40;;;;;;;14.09;88.67;98502.91;4924924;29;20790;-62
2023/05/01 08:57:58;;;;;;;14.47;11.50;;;;;;;14.38;87.95;98503.97;4918469;29;20558;-62
2023/05/01 09:00:26;;;;;;;15.67;12.23;;;;;;;14.72;86.24;98502.72;4925059;29;20266;-63
2023/05/01 09:02:52;;;;;;;12.30;10.60;;;;;;;14.90;84.70;98503.13;4927504;29;20780;-62
2023/05/01 09:05:20;;;;;;;13.43;11.43;;;;;;;15.33;82.28;98509.53;4924678;29;20653;-62
2023/05/01 09:07:48;;;;;;;12.37;10.03;;;;;;;15.56;80.82;98512.00;4927840;29;20289;-62
2023/05/01 09:10:17;;;;;;;10.80;8.13;;;;;;;15.79;75.29;98514.50;4924779;29;20318;-62
2023/05/01 09:12:46;;;;;;;10.27;8.87;;;;;;;15.86;74.73;98519.81;4915161;29;20342;-62
2023/05/01 09:15:14;;;;;;;15.80;9.90;;;;;;;15.74;78.07;98521.31;4904660;29;20316;-62
2023/05/01 09:17:42;;;;;;;13.00;9.53;;;;;;;15.69;76.05;98532.41;4899604;29;20238;-62
2023/05/01 09:20:10;;;;;;;12.03;10.07;;;;;;;15.37;79.08;98518.69;4905440;29;20325;-62
2023/05/01 09:22:37;;;;;;;13.77;10.40;;;;;;;15.19;81.59;98514.63;4911238;29;20244;-62
2023/05/01 09:25:06;;;;;;;9.63;8.40;;;;;;;15.58;77.37;98512.63;4907209;29;20299;-62
2023/05/01 09:27:34;;;;;;;14.10;8.77;;;;;;;15.98;76.77;98512.25;4904786;29;20234;-62
2023/05/01 09:30:02;;;;;;;10.40;7.70;;;;;;;16.38;72.90;98527.59;4908705;29;20269;-62
2023/05/01 09:32:29;;;;;;;9.80;7.40;;;;;;;15.87;73.78;98505.69;4905591;29;20280;-62
2023/05/01 09:35:09;;;;;;;9.60;7.47;;;;;;;16.27;72.51;98515.75;4898906;29;20626;-62
2023/05/01 09:37:36;;;;;;;7.30;6.30;;;;;;;16.36;70.85;98514.59;4924692;29;20238;-62
2023/05/01 09:40:09;;;;;;;7.73;5.90;;;;;;;16.27;70.32;98513.09;4927308;29;20652;-62
2023/05/01 09:42:38;;;;;;;6.40;5.80;;;;;;;16.26;71.69;98508.84;4924714;29;20613;-62
2023/05/01 09:45:07;;;;;;;8.10;7.30;;;;;;;16.17;73.03;98512.63;4911472;29;20242;-62
2023/05/01 09:47:34;;;;;;;9.13;8.00;;;;;;;16.30;70.82;98504.81;4923087;29;20617;-62
2023/05/01 09:50:00;;;;;;;11.97;8.03;;;;;;;16.08;72.99;98511.94;4928873;29;20756;-62
2023/05/01 09:52:30;;;;;;;8.70;6.83;;;;;;;16.17;71.41;98504.72;4928160;29;20327;-63
2023/05/01 09:55:19;;;;;;;8.53;7.50;;;;;;;15.78;74.69;98499.69;4924654;29;20234;-63
2023/05/01 09:57:46;;;;;;;7.60;6.87;;;;;;;15.59;76.20;98500.31;4908052;29;20238;-63
2023/05/01 10:00:14;;;;;;;12.53;7.50;;;;;;;15.71;76.74;98498.81;4928497;29;20233;-63
2023/05/01 10:02:43;;;;;;;8.60;6.57;;;;;;;15.68;73.18;98501.81;4931051;29;20233;-63
2023/05/01 10:05:11;;;;;;;10.10;7.23;;;;;;;15.99;74.04;98505.19;4928225;29;20244;-63
2023/05/01 10:07:38;;;;;;;8.63;6.57;;;;;;;16.50;73.67;98502.31;4930060;29;20241;-63
2023/05/01 10:10:20;;;;;;;6.53;5.90;;;;;;;16.81;70.35;98495.03;4930127;29;20319;-63
2023/05/01 10:12:47;;;;;;;6.40;5.80;;;;;;;17.03;69.28;98506.31;4921933;29;20258;-63
2023/05/01 10:15:14;;;;;;;6.50;5.80;;;;;;;17.17;68.43;98507.19;4927109;29;20234;-62
2023/05/01 10:17:43;;;;;;;6.27;5.50;;;;;;;16.84;68.36;98507.81;4930817;29;20238;-62
2023/05/01 10:20:11;;;;;;;6.73;5.23;;;;;;;16.82;65.93;98507.19;4927837;29;20233;-62
2023/05/01 10:22:38;;;;;;;7.47;5.53;;;;;;;16.64;67.38;98513.78;4930030;29;20238;-62
2023/05/01 10:25:08;;;;;;;7.07;5.20;;;;;;;16.37;68.03;98510.16;4930392;29;20226;-62
2023/05/01 10:27:38;;;;;;;5.40;4.90;;;;;;;16.86;67.57;98519.00;4928272;29;20234;-62
2023/05/01 10:30:06;;;;;;;6.20;5.60;;;;;;;17.30;64.92;98511.72;4930874;29;20237;-62
2023/05/01 10:32:33;;;;;;;6.63;5.47;;;;;;;17.49;62.68;98515.41;4927735;29;20239;-62
2023/05/01 10:35:05;;;;;;;6.03;5.27;;;;;;;17.19;63.88;98513.06;4930479;29;20759;-62
2023/05/01 10:37:39;;;;;;;5.93;5.30;;;;;;;17.18;65.71;98514.09;4927498;29;20290;-62
2023/05/01 10:40:43;;;;;;;6.27;5.27;;;;;;;17.91;63.48;98515.28;4930595;29;20247;-62
2023/05/01 10:43:15;;;;;;;5.53;4.93;;;;;;;18.23;63.95;98509.44;4916754;29;20246;-64
2023/05/01 10:45:43;;;;;;;5.80;4.83;;;;;;;18.51;62.29;98505.78;4930337;29;20253;-62
2023/05/01 10:48:09;;;;;;;5.97;5.30;;;;;;;18.97;59.46;98502.25;4926643;29;20254;-62
2023/05/01 10:51:09;;;;;;;5.63;4.73;;;;;;;19.46;56.14;98499.19;4911822;29;20244;-62
2023/05/01 10:53:36;;;;;;;6.80;5.37;;;;;;;19.05;58.72;98503.06;4908093;29;20319;-62
2023/05/01 10:56:04;;;;;;;5.10;4.60;;;;;;;19.29;58.59;98502.31;4911163;29;20243;-62
2023/05/01 10:58:59;;;;;;;5.87;5.27;;;;;;;19.14;57.24;98501.78;4902549;29;20256;-62
2023/05/01 11:01:34;;;;;;;6.17;5.23;;;;;;;18.62;58.30;98499.88;4908537;29;20245;-62
2023/05/01 11:04:04;;;;;;;5.83;4.60;;;;;;;19.06;57.60;98488.81;4910902;29;20235;-62
2023/05/01 11:06:31;;;;;;;6.90;4.90;;;;;;;19.38;56.63;98491.50;4907898;29;20273;-62
2023/05/01 11:08:58;;;;;;;5.40;4.90;;;;;;;19.03;56.27;98490.03;4911214;29;20234;-62
2023/05/01 11:11:50;;;;;;;5.23;4.60;;;;;;;19.00;55.01;98498.38;4908278;29;20244;-62
2023/05/01 11:14:18;;;;;;;9.30;5.40;;;;;;;18.89;58.37;98494.53;4906821;29;20333;-62
2023/05/01 11:16:47;;;;;;;6.17;5.30;;;;;;;19.40;57.19;98486.81;4911181;29;20288;-62
2023/05/01 11:19:47;;;;;;;7.27;6.40;;;;;;;19.61;55.67;98490.94;4906660;29;20586;-62
2023/05/01 11:22:14;;;;;;;6.87;6.10;;;;;;;19.77;55.67;98489.63;4907448;29;20261;-62
2023/05/01 11:24:41;;;;;;;9.57;5.43;;;;;;;19.53;56.47;98491.22;4910367;29;20237;-62
2023/05/01 11:27:08;;;;;;;6.27;5.47;;;;;;;19.69;53.11;98488.03;4910544;29;20785;-62
2023/05/01 11:29:37;;;;;;;6.00;4.87;;;;;;;19.31;55.04;98478.31;4908039;29;20237;-62
2023/05/01 11:32:04;;;;;;;6.03;5.13;;;;;;;19.40;57.92;98478.84;4910286;29;20228;-62
2023/05/01 11:34:36;;;;;;;5.27;4.77;;;;;;;19.29;56.71;98478.50;4903283;29;20241;-62
2023/05/01 11:37:03;;;;;;;6.47;5.47;;;;;;;18.82;58.30;98472.56;4929433;29;20268;-62
2023/05/01 11:39:30;;;;;;;6.90;5.27;;;;;;;18.72;60.93;98473.81;4926285;29;20244;-62
2023/05/01 11:42:07;;;;;;;7.97;5.83;;;;;;;18.76;60.02;98460.19;4929340;29;20233;-63
2023/05/01 11:44:34;;;;;;;6.20;5.40;;;;;;;18.98;56.42;98461.56;4925608;29;20317;-64